sensor_id;sensor_type;location;lat;lon;timestamp;P1;durP1;ratioP1;P2;durP2;ratioP2
54307;SDS011;40208;39.778;2.710;2023-04-24T00:00:06;4.10;;;1.88;;
54307;SDS011;40208;39.778;2.710;2023-04-24T00:02:53;3.78;;;1.92;;
54307;SDS011;40208;39.778;2.710;2023-04-24T00:05:41;3.72;;;1.92;;
54307;SDS011;40208;39.778;2.710;2023-04-24T00:08:26;4.70;;;1.80;;
54307;SDS011;40208;39.778;2.710;2023-04-24T00:11:10;4.35;;;2.10;;
54307;SDS011;40208;39.778;2.710;2023-04-24T00:13:56;3.63;;;1.80;;
54307;SDS011;40208;39.778;2.710;2023-04-24T00:16:41;5.75;;;1.65;;
54307;SDS011;40208;39.778;2.710;2023-04-24T00:19:26;3.53;;;2.10;;
54307;SDS011;40208;39.778;2.710;2023-04-24T00:22:10;7.90;;;1.90;;
54307;SDS011;40208;39.778;2.710;2023-04-24T00:24:57;3.90;;;2.13;;
54307;SDS011;40208;39.778;2.710;2023-04-24T00:27:42;6.03;;;2.35;;
54307;SDS011;40208;39.778;2.710;2023-04-24T00:30:26;6.32;;;2.28;;
54307;SDS011;40208;39.778;2.710;2023-04-24T00:33:11;4.30;;;2.13;;
54307;SDS011;40208;39.778;2.710;2023-04-24T00:35:56;7.40;;;2.67;;
54307;SDS011;40208;39.778;2.710;2023-04-24T00:38:41;7.07;;;2.08;;
54307;SDS011;40208;39.778;2.710;2023-04-24T00:41:25;4.55;;;1.80;;
54307;SDS011;40208;39.778;2.710;2023-04-24T00:44:11;5.05;;;1.88;;
54307;SDS011;40208;39.778;2.710;2023-04-24T00:46:56;4.10;;;2.00;;
54307;SDS011;40208;39.778;2.710;2023-04-24T00:49:42;9.02;;;2.10;;
54307;SDS011;40208;39.778;2.710;2023-04-24T00:52:27;4.70;;;1.95;;
54307;SDS011;40208;39.778;2.710;2023-04-24T00:55:13;3.78;;;1.67;;
54307;SDS011;40208;39.778;2.710;2023-04-24T00:58:04;5.55;;;1.83;;
54307;SDS011;40208;39.778;2.710;2023-04-24T01:00:49;13.93;;;2.42;;
54307;SDS011;40208;39.778;2.710;2023-04-24T01:03:37;4.38;;;1.80;;
54307;SDS011;40208;39.778;2.710;2023-04-24T01:06:22;6.82;;;2.35;;
54307;SDS011;40208;39.778;2.710;2023-04-24T01:09:08;7.18;;;2.55;;
54307;SDS011;40208;39.778;2.710;2023-04-24T01:11:55;4.97;;;2.42;;
54307;SDS011;40208;39.778;2.710;2023-04-24T01:14:40;7.00;;;2.38;;
54307;SDS011;40208;39.778;2.710;2023-04-24T01:17:25;4.97;;;2.10;;
54307;SDS011;40208;39.778;2.710;2023-04-24T01:20:10;4.53;;;2.05;;
54307;SDS011;40208;39.778;2.710;2023-04-24T01:22:56;7.43;;;2.15;;
54307;SDS011;40208;39.778;2.710;2023-04-24T01:25:41;3.97;;;2.03;;
54307;SDS011;40208;39.778;2.710;2023-04-24T01:28:27;6.70;;;1.85;;
54307;SDS011;40208;39.778;2.710;2023-04-24T01:31:12;5.57;;;2.20;;
54307;SDS011;40208;39.778;2.710;2023-04-24T01:33:57;4.38;;;1.90;;
54307;SDS011;40208;39.778;2.710;2023-04-24T01:36:43;8.40;;;2.53;;
54307;SDS011;40208;39.778;2.710;2023-04-24T01:39:31;4.78;;;2.05;;
54307;SDS011;40208;39.778;2.710;2023-04-24T01:42:18;5.88;;;2.35;;
54307;SDS011;40208;39.778;2.710;2023-04-24T01:45:05;5.30;;;2.00;;
54307;SDS011;40208;39.778;2.710;2023-04-24T01:47:56;4.70;;;1.90;;
54307;SDS011;40208;39.778;2.710;2023-04-24T01:50:42;5.18;;;2.13;;
54307;SDS011;40208;39.778;2.710;2023-04-24T01:53:27;3.92;;;2.13;;
54307;SDS011;40208;39.778;2.710;2023-04-24T01:56:12;4.40;;;2.03;;
54307;SDS011;40208;39.778;2.710;2023-04-24T01:58:58;5.00;;;1.88;;
54307;SDS011;40208;39.778;2.710;2023-04-24T02:01:44;4.70;;;1.80;;
54307;SDS011;40208;39.778;2.710;2023-04-24T02:04:29;4.78;;;1.92;;
54307;SDS011;40208;39.778;2.710;2023-04-24T02:07:14;7.45;;;2.15;;
54307;SDS011;40208;39.778;2.710;2023-04-24T02:09:59;4.97;;;2.03;;
54307;SDS011;40208;39.778;2.710;2023-04-24T02:12:44;6.43;;;1.90;;
54307;SDS011;40208;39.778;2.710;2023-04-24T02:15:29;7.15;;;2.05;;
54307;SDS011;40208;39.778;2.710;2023-04-24T02:18:14;7.43;;;1.95;;
54307;SDS011;40208;39.778;2.710;2023-04-24T02:21:00;5.68;;;2.17;;
54307;SDS011;40208;39.778;2.710;2023-04-24T02:23:45;6.50;;;1.85;;
54307;SDS011;40208;39.778;2.710;2023-04-24T02:26:30;9.73;;;2.40;;
54307;SDS011;40208;39.778;2.710;2023-04-24T02:29:16;7.25;;;2.50;;
54307;SDS011;40208;39.778;2.710;2023-04-24T02:32:00;5.68;;;2.28;;
54307;SDS011;40208;39.778;2.710;2023-04-24T02:34:46;6.57;;;2.13;;
54307;SDS011;40208;39.778;2.710;2023-04-24T02:37:31;4.00;;;1.88;;
54307;SDS011;40208;39.778;2.710;2023-04-24T02:40:16;5.18;;;2.10;;
54307;SDS011;40208;39.778;2.710;2023-04-24T02:43:04;3.53;;;1.98;;
54307;SDS011;40208;39.778;2.710;2023-04-24T02:45:49;6.07;;;2.50;;
54307;SDS011;40208;39.778;2.710;2023-04-24T02:48:34;8.40;;;2.72;;
54307;SDS011;40208;39.778;2.710;2023-04-24T02:51:20;4.53;;;2.25;;
54307;SDS011;40208;39.778;2.710;2023-04-24T02:54:11;5.93;;;2.30;;
54307;SDS011;40208;39.778;2.710;2023-04-24T02:56:56;4.38;;;2.28;;
54307;SDS011;40208;39.778;2.710;2023-04-24T02:59:41;7.15;;;2.63;;
54307;SDS011;40208;39.778;2.710;2023-04-24T03:02:26;6.38;;;2.38;;
54307;SDS011;40208;39.778;2.710;2023-04-24T03:05:11;7.85;;;2.33;;
54307;SDS011;40208;39.778;2.710;2023-04-24T03:07:56;6.07;;;2.30;;
54307;SDS011;40208;39.778;2.710;2023-04-24T03:10:41;8.93;;;2.20;;
54307;SDS011;40208;39.778;2.710;2023-04-24T03:13:26;4.28;;;2.13;;
54307;SDS011;40208;39.778;2.710;2023-04-24T03:16:11;6.05;;;2.30;;
54307;SDS011;40208;39.778;2.710;2023-04-24T03:18:56;5.68;;;2.10;;
54307;SDS011;40208;39.778;2.710;2023-04-24T03:21:41;6.32;;;2.55;;
54307;SDS011;40208;39.778;2.710;2023-04-24T03:24:26;5.13;;;2.25;;
54307;SDS011;40208;39.778;2.710;2023-04-24T03:27:12;9.90;;;2.92;;
54307;SDS011;40208;39.778;2.710;2023-04-24T03:29:57;6.13;;;2.47;;
54307;SDS011;40208;39.778;2.710;2023-04-24T03:32:42;6.88;;;2.78;;
54307;SDS011;40208;39.778;2.710;2023-04-24T03:35:28;7.22;;;1.90;;
54307;SDS011;40208;39.778;2.710;2023-04-24T03:38:13;6.85;;;2.13;;
54307;SDS011;40208;39.778;2.710;2023-04-24T03:40:59;7.10;;;2.25;;
54307;SDS011;40208;39.778;2.710;2023-04-24T03:43:44;6.30;;;2.10;;
54307;SDS011;40208;39.778;2.710;2023-04-24T03:46:29;4.68;;;2.65;;
54307;SDS011;40208;39.778;2.710;2023-04-24T03:49:14;8.80;;;2.50;;
54307;SDS011;40208;39.778;2.710;2023-04-24T03:51:59;6.28;;;2.10;;
54307;SDS011;40208;39.778;2.710;2023-04-24T03:54:44;4.97;;;2.13;;
54307;SDS011;40208;39.778;2.710;2023-04-24T03:57:29;5.25;;;2.03;;
54307;SDS011;40208;39.778;2.710;2023-04-24T04:00:14;3.65;;;1.98;;
54307;SDS011;40208;39.778;2.710;2023-04-24T04:02:59;5.13;;;1.95;;
54307;SDS011;40208;39.778;2.710;2023-04-24T04:05:44;5.47;;;2.33;;
54307;SDS011;40208;39.778;2.710;2023-04-24T04:08:30;5.03;;;2.03;;
54307;SDS011;40208;39.778;2.710;2023-04-24T04:11:16;4.57;;;2.10;;
54307;SDS011;40208;39.778;2.710;2023-04-24T04:14:01;5.30;;;2.33;;
54307;SDS011;40208;39.778;2.710;2023-04-24T04:16:45;4.57;;;2.47;;
54307;SDS011;40208;39.778;2.710;2023-04-24T04:19:30;5.65;;;2.15;;
54307;SDS011;40208;39.778;2.710;2023-04-24T04:22:15;5.80;;;2.45;;
54307;SDS011;40208;39.778;2.710;2023-04-24T04:25:00;5.97;;;2.35;;
54307;SDS011;40208;39.778;2.710;2023-04-24T04:27:45;3.28;;;1.88;;
54307;SDS011;40208;39.778;2.710;2023-04-24T04:30:32;6.75;;;2.20;;
54307;SDS011;40208;39.778;2.710;2023-04-24T04:33:17;5.00;;;2.00;;
54307;SDS011;40208;39.778;2.710;2023-04-24T04:36:03;11.63;;;2.10;;
54307;SDS011;40208;39.778;2.710;2023-04-24T04:38:48;4.78;;;2.10;;
54307;SDS011;40208;39.778;2.710;2023-04-24T04:41:33;5.07;;;2.80;;
54307;SDS011;40208;39.778;2.710;2023-04-24T04:44:21;4.28;;;2.20;;
54307;SDS011;40208;39.778;2.710;2023-04-24T04:47:08;10.25;;;2.35;;
54307;SDS011;40208;39.778;2.710;2023-04-24T04:49:53;6.65;;;2.00;;
54307;SDS011;40208;39.778;2.710;2023-04-24T04:52:38;5.43;;;2.45;;
54307;SDS011;40208;39.778;2.710;2023-04-24T04:55:23;3.80;;;1.63;;
54307;SDS011;40208;39.778;2.710;2023-04-24T04:58:08;4.35;;;2.22;;
54307;SDS011;40208;39.778;2.710;2023-04-24T05:00:53;4.28;;;2.30;;
54307;SDS011;40208;39.778;2.710;2023-04-24T05:03:38;3.67;;;1.77;;
54307;SDS011;40208;39.778;2.710;2023-04-24T05:06:23;4.25;;;2.00;;
54307;SDS011;40208;39.778;2.710;2023-04-24T05:09:08;12.48;;;2.33;;
54307;SDS011;40208;39.778;2.710;2023-04-24T05:11:53;6.60;;;2.00;;
54307;SDS011;40208;39.778;2.710;2023-04-24T05:14:37;4.35;;;1.75;;
54307;SDS011;40208;39.778;2.710;2023-04-24T05:17:22;3.15;;;1.75;;
54307;SDS011;40208;39.778;2.710;2023-04-24T05:20:07;4.88;;;1.98;;
54307;SDS011;40208;39.778;2.710;2023-04-24T05:22:53;7.07;;;1.98;;
54307;SDS011;40208;39.778;2.710;2023-04-24T05:25:38;8.60;;;1.85;;
54307;SDS011;40208;39.778;2.710;2023-04-24T05:28:24;4.00;;;1.90;;
54307;SDS011;40208;39.778;2.710;2023-04-24T05:31:12;8.50;;;2.35;;
54307;SDS011;40208;39.778;2.710;2023-04-24T05:33:57;6.10;;;2.40;;
54307;SDS011;40208;39.778;2.710;2023-04-24T05:36:42;6.05;;;2.00;;
54307;SDS011;40208;39.778;2.710;2023-04-24T05:39:28;10.88;;;2.47;;
54307;SDS011;40208;39.778;2.710;2023-04-24T05:42:13;14.07;;;2.58;;
54307;SDS011;40208;39.778;2.710;2023-04-24T05:44:58;5.40;;;2.47;;
54307;SDS011;40208;39.778;2.710;2023-04-24T05:47:43;18.45;;;2.60;;
54307;SDS011;40208;39.778;2.710;2023-04-24T05:50:28;7.65;;;2.53;;
54307;SDS011;40208;39.778;2.710;2023-04-24T05:53:13;12.77;;;2.58;;
54307;SDS011;40208;39.778;2.710;2023-04-24T05:55:58;6.75;;;2.80;;
54307;SDS011;40208;39.778;2.710;2023-04-24T05:58:45;4.70;;;2.53;;
54307;SDS011;40208;39.778;2.710;2023-04-24T06:01:30;9.60;;;3.05;;
54307;SDS011;40208;39.778;2.710;2023-04-24T06:04:15;11.88;;;2.45;;
54307;SDS011;40208;39.778;2.710;2023-04-24T06:07:01;11.77;;;2.58;;
54307;SDS011;40208;39.778;2.710;2023-04-24T06:09:48;10.95;;;2.83;;
54307;SDS011;40208;39.778;2.710;2023-04-24T06:12:33;11.55;;;3.30;;
54307;SDS011;40208;39.778;2.710;2023-04-24T06:15:18;14.93;;;2.75;;
54307;SDS011;40208;39.778;2.710;2023-04-24T06:18:10;7.82;;;2.75;;
54307;SDS011;40208;39.778;2.710;2023-04-24T06:20:56;12.18;;;3.85;;
54307;SDS011;40208;39.778;2.710;2023-04-24T06:23:41;11.20;;;2.88;;
54307;SDS011;40208;39.778;2.710;2023-04-24T06:26:26;13.02;;;2.63;;
54307;SDS011;40208;39.778;2.710;2023-04-24T06:29:11;8.18;;;3.10;;
54307;SDS011;40208;39.778;2.710;2023-04-24T06:31:57;8.63;;;2.30;;
54307;SDS011;40208;39.778;2.710;2023-04-24T06:34:42;12.48;;;2.90;;
54307;SDS011;40208;39.778;2.710;2023-04-24T06:37:27;6.10;;;1.92;;
54307;SDS011;40208;39.778;2.710;2023-04-24T06:40:16;4.32;;;1.75;;
54307;SDS011;40208;39.778;2.710;2023-04-24T06:43:03;5.53;;;1.88;;
54307;SDS011;40208;39.778;2.710;2023-04-24T06:45:48;8.85;;;1.73;;
54307;SDS011;40208;39.778;2.710;2023-04-24T06:48:32;5.65;;;2.28;;
54307;SDS011;40208;39.778;2.710;2023-04-24T06:51:17;10.73;;;2.45;;
54307;SDS011;40208;39.778;2.710;2023-04-24T06:54:02;6.70;;;2.22;;
54307;SDS011;40208;39.778;2.710;2023-04-24T06:56:48;6.05;;;1.75;;
54307;SDS011;40208;39.778;2.710;2023-04-24T06:59:35;4.88;;;2.17;;
54307;SDS011;40208;39.778;2.710;2023-04-24T07:02:20;8.25;;;2.13;;
54307;SDS011;40208;39.778;2.710;2023-04-24T07:05:06;7.50;;;1.73;;
54307;SDS011;40208;39.778;2.710;2023-04-24T07:07:52;7.80;;;2.35;;
54307;SDS011;40208;39.778;2.710;2023-04-24T07:10:37;7.22;;;3.80;;
54307;SDS011;40208;39.778;2.710;2023-04-24T07:13:23;10.07;;;2.85;;
54307;SDS011;40208;39.778;2.710;2023-04-24T07:16:08;7.15;;;2.65;;
54307;SDS011;40208;39.778;2.710;2023-04-24T07:18:53;11.90;;;2.08;;
54307;SDS011;40208;39.778;2.710;2023-04-24T07:21:39;7.75;;;2.30;;
54307;SDS011;40208;39.778;2.710;2023-04-24T07:24:25;6.75;;;1.95;;
54307;SDS011;40208;39.778;2.710;2023-04-24T07:27:10;7.38;;;2.70;;
54307;SDS011;40208;39.778;2.710;2023-04-24T07:29:56;4.25;;;1.90;;
54307;SDS011;40208;39.778;2.710;2023-04-24T07:32:40;5.25;;;2.20;;
54307;SDS011;40208;39.778;2.710;2023-04-24T07:35:26;11.32;;;3.03;;
54307;SDS011;40208;39.778;2.710;2023-04-24T07:38:11;20.38;;;7.18;;
54307;SDS011;40208;39.778;2.710;2023-04-24T07:40:56;15.75;;;7.20;;
54307;SDS011;40208;39.778;2.710;2023-04-24T07:43:41;15.05;;;8.18;;
54307;SDS011;40208;39.778;2.710;2023-04-24T07:46:26;11.95;;;7.00;;
54307;SDS011;40208;39.778;2.710;2023-04-24T07:49:13;11.32;;;4.70;;
54307;SDS011;40208;39.778;2.710;2023-04-24T07:51:58;6.10;;;3.40;;
54307;SDS011;40208;39.778;2.710;2023-04-24T07:54:44;20.65;;;3.35;;
54307;SDS011;40208;39.778;2.710;2023-04-24T07:57:29;6.75;;;2.88;;
54307;SDS011;40208;39.778;2.710;2023-04-24T08:00:15;7.93;;;2.60;;
54307;SDS011;40208;39.778;2.710;2023-04-24T08:03:00;7.20;;;3.10;;
54307;SDS011;40208;39.778;2.710;2023-04-24T08:05:46;11.15;;;3.90;;
54307;SDS011;40208;39.778;2.710;2023-04-24T08:08:31;18.13;;;6.53;;
54307;SDS011;40208;39.778;2.710;2023-04-24T08:11:16;20.42;;;5.95;;
54307;SDS011;40208;39.778;2.710;2023-04-24T08:14:00;20.10;;;7.05;;
54307;SDS011;40208;39.778;2.710;2023-04-24T08:16:45;24.67;;;8.18;;
54307;SDS011;40208;39.778;2.710;2023-04-24T08:19:32;24.27;;;9.00;;
54307;SDS011;40208;39.778;2.710;2023-04-24T08:22:23;29.40;;;9.13;;
54307;SDS011;40208;39.778;2.710;2023-04-24T08:25:07;29.90;;;9.50;;
54307;SDS011;40208;39.778;2.710;2023-04-24T08:27:59;29.73;;;8.75;;
54307;SDS011;40208;39.778;2.710;2023-04-24T08:30:44;36.42;;;10.52;;
54307;SDS011;40208;39.778;2.710;2023-04-24T08:33:30;44.33;;;13.73;;
54307;SDS011;40208;39.778;2.710;2023-04-24T08:36:18;41.97;;;14.13;;
54307;SDS011;40208;39.778;2.710;2023-04-24T08:39:04;45.72;;;13.82;;
54307;SDS011;40208;39.778;2.710;2023-04-24T08:41:50;42.13;;;11.77;;
54307;SDS011;40208;39.778;2.710;2023-04-24T08:44:37;49.70;;;14.98;;
54307;SDS011;40208;39.778;2.710;2023-04-24T08:47:21;46.38;;;14.95;;
54307;SDS011;40208;39.778;2.710;2023-04-24T08:50:07;41.88;;;13.57;;
54307;SDS011;40208;39.778;2.710;2023-04-24T08:52:53;46.35;;;13.93;;
54307;SDS011;40208;39.778;2.710;2023-04-24T08:55:46;54.00;;;16.77;;
54307;SDS011;40208;39.778;2.710;2023-04-24T08:58:31;66.40;;;20.15;;
54307;SDS011;40208;39.778;2.710;2023-04-24T09:01:19;67.82;;;23.55;;
54307;SDS011;40208;39.778;2.710;2023-04-24T09:04:10;77.10;;;23.20;;
54307;SDS011;40208;39.778;2.710;2023-04-24T09:06:59;36.27;;;11.13;;
54307;SDS011;40208;39.778;2.710;2023-04-24T09:09:45;73.85;;;22.98;;
54307;SDS011;40208;39.778;2.710;2023-04-24T09:12:32;77.05;;;23.30;;
54307;SDS011;40208;39.778;2.710;2023-04-24T09:18:07;84.13;;;25.67;;
54307;SDS011;40208;39.778;2.710;2023-04-24T09:20:59;70.78;;;24.85;;
54307;SDS011;40208;39.778;2.710;2023-04-24T09:24:02;67.40;;;22.98;;
54307;SDS011;40208;39.778;2.710;2023-04-24T09:26:49;84.00;;;26.17;;
54307;SDS011;40208;39.778;2.710;2023-04-24T09:30:01;31.60;;;12.23;;
54307;SDS011;40208;39.778;2.710;2023-04-24T09:32:47;45.20;;;14.55;;
54307;SDS011;40208;39.778;2.710;2023-04-24T09:35:40;62.92;;;21.13;;
54307;SDS011;40208;39.778;2.710;2023-04-24T09:38:36;41.50;;;14.40;;
54307;SDS011;40208;39.778;2.710;2023-04-24T09:41:22;57.25;;;16.55;;
54307;SDS011;40208;39.778;2.710;2023-04-24T09:44:11;49.30;;;15.48;;
54307;SDS011;40208;39.778;2.710;2023-04-24T09:46:59;32.85;;;10.68;;
54307;SDS011;40208;39.778;2.710;2023-04-24T09:49:44;56.78;;;17.20;;
54307;SDS011;40208;39.778;2.710;2023-04-24T09:52:30;51.92;;;16.35;;
54307;SDS011;40208;39.778;2.710;2023-04-24T09:55:16;61.83;;;18.95;;
54307;SDS011;40208;39.778;2.710;2023-04-24T09:58:03;55.38;;;17.80;;
54307;SDS011;40208;39.778;2.710;2023-04-24T10:00:49;40.10;;;12.07;;
54307;SDS011;40208;39.778;2.710;2023-04-24T10:03:38;17.70;;;5.65;;
54307;SDS011;40208;39.778;2.710;2023-04-24T10:06:34;29.52;;;10.88;;
54307;SDS011;40208;39.778;2.710;2023-04-24T10:09:20;10.73;;;4.00;;
54307;SDS011;40208;39.778;2.710;2023-04-24T10:12:13;23.90;;;8.00;;
54307;SDS011;40208;39.778;2.710;2023-04-24T10:14:59;26.42;;;9.25;;
54307;SDS011;40208;39.778;2.710;2023-04-24T10:17:49;35.58;;;12.23;;
54307;SDS011;40208;39.778;2.710;2023-04-24T10:20:38;41.30;;;15.07;;
54307;SDS011;40208;39.778;2.710;2023-04-24T10:23:24;56.55;;;16.27;;
54307;SDS011;40208;39.778;2.710;2023-04-24T10:26:16;55.15;;;18.50;;
54307;SDS011;40208;39.778;2.710;2023-04-24T10:29:02;53.60;;;18.70;;
54307;SDS011;40208;39.778;2.710;2023-04-24T10:31:49;62.15;;;22.75;;
54307;SDS011;40208;39.778;2.710;2023-04-24T10:34:40;59.42;;;21.23;;
54307;SDS011;40208;39.778;2.710;2023-04-24T10:37:24;37.97;;;14.05;;
54307;SDS011;40208;39.778;2.710;2023-04-24T10:40:11;58.00;;;21.10;;
54307;SDS011;40208;39.778;2.710;2023-04-24T10:43:01;64.10;;;20.63;;
54307;SDS011;40208;39.778;2.710;2023-04-24T10:46:02;52.88;;;19.15;;
54307;SDS011;40208;39.778;2.710;2023-04-24T10:48:52;50.70;;;17.75;;
54307;SDS011;40208;39.778;2.710;2023-04-24T10:54:36;38.88;;;11.65;;
54307;SDS011;40208;39.778;2.710;2023-04-24T10:57:26;36.00;;;13.13;;
54307;SDS011;40208;39.778;2.710;2023-04-24T11:00:15;45.78;;;15.68;;
54307;SDS011;40208;39.778;2.710;2023-04-24T11:03:03;30.15;;;10.85;;
54307;SDS011;40208;39.778;2.710;2023-04-24T11:05:50;37.20;;;10.05;;
54307;SDS011;40208;39.778;2.710;2023-04-24T11:08:45;25.20;;;9.88;;
54307;SDS011;40208;39.778;2.710;2023-04-24T11:11:30;42.80;;;15.63;;
54307;SDS011;40208;39.778;2.710;2023-04-24T11:14:15;38.75;;;12.05;;
54307;SDS011;40208;39.778;2.710;2023-04-24T11:17:01;44.70;;;16.00;;
54307;SDS011;40208;39.778;2.710;2023-04-24T11:19:49;42.75;;;14.85;;
54307;SDS011;40208;39.778;2.710;2023-04-24T11:22:35;26.88;;;10.43;;
54307;SDS011;40208;39.778;2.710;2023-04-24T11:25:22;39.92;;;15.27;;
54307;SDS011;40208;39.778;2.710;2023-04-24T11:28:07;44.67;;;18.13;;
54307;SDS011;40208;39.778;2.710;2023-04-24T11:31:33;35.55;;;13.60;;
54307;SDS011;40208;39.778;2.710;2023-04-24T11:34:24;43.53;;;16.08;;
54307;SDS011;40208;39.778;2.710;2023-04-24T11:37:09;35.70;;;13.00;;
54307;SDS011;40208;39.778;2.710;2023-04-24T11:40:01;27.70;;;10.35;;
54307;SDS011;40208;39.778;2.710;2023-04-24T11:42:46;42.35;;;15.10;;
54307;SDS011;40208;39.778;2.710;2023-04-24T11:45:33;27.48;;;11.45;;
54307;SDS011;40208;39.778;2.710;2023-04-24T11:48:20;30.23;;;10.82;;
54307;SDS011;40208;39.778;2.710;2023-04-24T11:51:05;31.58;;;11.10;;
54307;SDS011;40208;39.778;2.710;2023-04-24T11:53:51;19.17;;;7.05;;
54307;SDS011;40208;39.778;2.710;2023-04-24T11:56:35;21.50;;;7.55;;
54307;SDS011;40208;39.778;2.710;2023-04-24T11:59:20;26.88;;;8.32;;
54307;SDS011;40208;39.778;2.710;2023-04-24T12:02:06;14.27;;;5.43;;
54307;SDS011;40208;39.778;2.710;2023-04-24T12:04:51;12.40;;;3.83;;
54307;SDS011;40208;39.778;2.710;2023-04-24T12:07:40;15.18;;;5.82;;
54307;SDS011;40208;39.778;2.710;2023-04-24T12:10:29;31.98;;;12.10;;
54307;SDS011;40208;39.778;2.710;2023-04-24T12:13:15;40.05;;;18.23;;
54307;SDS011;40208;39.778;2.710;2023-04-24T12:16:02;43.90;;;20.45;;
54307;SDS011;40208;39.778;2.710;2023-04-24T12:18:50;35.63;;;15.32;;
54307;SDS011;40208;39.778;2.710;2023-04-24T12:21:36;38.95;;;17.52;;
54307;SDS011;40208;39.778;2.710;2023-04-24T12:24:21;32.42;;;13.85;;
54307;SDS011;40208;39.778;2.710;2023-04-24T12:27:19;56.67;;;24.63;;
54307;SDS011;40208;39.778;2.710;2023-04-24T12:30:14;28.63;;;10.50;;
54307;SDS011;40208;39.778;2.710;2023-04-24T12:33:01;25.83;;;9.48;;
54307;SDS011;40208;39.778;2.710;2023-04-24T12:35:48;30.65;;;12.60;;
54307;SDS011;40208;39.778;2.710;2023-04-24T12:38:36;27.05;;;10.80;;
54307;SDS011;40208;39.778;2.710;2023-04-24T12:41:24;45.85;;;17.33;;
54307;SDS011;40208;39.778;2.710;2023-04-24T12:44:10;40.92;;;18.20;;
54307;SDS011;40208;39.778;2.710;2023-04-24T12:46:55;37.28;;;15.57;;
54307;SDS011;40208;39.778;2.710;2023-04-24T12:49:39;34.85;;;14.45;;
54307;SDS011;40208;39.778;2.710;2023-04-24T12:52:25;38.97;;;14.15;;
54307;SDS011;40208;39.778;2.710;2023-04-24T12:55:11;35.33;;;14.90;;
54307;SDS011;40208;39.778;2.710;2023-04-24T12:57:56;36.63;;;14.07;;
54307;SDS011;40208;39.778;2.710;2023-04-24T13:00:48;26.42;;;10.82;;
54307;SDS011;40208;39.778;2.710;2023-04-24T13:03:34;34.05;;;14.40;;
54307;SDS011;40208;39.778;2.710;2023-04-24T13:06:19;38.10;;;13.27;;
54307;SDS011;40208;39.778;2.710;2023-04-24T13:09:05;30.65;;;13.90;;
54307;SDS011;40208;39.778;2.710;2023-04-24T13:11:50;28.55;;;12.25;;
54307;SDS011;40208;39.778;2.710;2023-04-24T13:14:35;31.50;;;12.75;;
54307;SDS011;40208;39.778;2.710;2023-04-24T13:17:21;19.65;;;8.38;;
54307;SDS011;40208;39.778;2.710;2023-04-24T13:20:07;31.35;;;12.52;;
54307;SDS011;40208;39.778;2.710;2023-04-24T13:22:54;31.02;;;11.15;;
54307;SDS011;40208;39.778;2.710;2023-04-24T13:25:38;31.05;;;11.95;;
54307;SDS011;40208;39.778;2.710;2023-04-24T13:28:24;26.33;;;9.02;;
54307;SDS011;40208;39.778;2.710;2023-04-24T13:31:10;19.52;;;9.15;;
54307;SDS011;40208;39.778;2.710;2023-04-24T13:33:55;30.27;;;11.43;;
54307;SDS011;40208;39.778;2.710;2023-04-24T13:36:40;22.50;;;10.48;;
54307;SDS011;40208;39.778;2.710;2023-04-24T13:39:25;25.33;;;9.88;;
54307;SDS011;40208;39.778;2.710;2023-04-24T13:42:11;27.85;;;9.35;;
54307;SDS011;40208;39.778;2.710;2023-04-24T13:44:56;20.70;;;8.68;;
54307;SDS011;40208;39.778;2.710;2023-04-24T13:47:41;28.67;;;9.30;;
54307;SDS011;40208;39.778;2.710;2023-04-24T13:50:26;27.60;;;8.30;;
54307;SDS011;40208;39.778;2.710;2023-04-24T13:53:11;23.55;;;7.43;;
54307;SDS011;40208;39.778;2.710;2023-04-24T13:55:55;20.63;;;8.65;;
54307;SDS011;40208;39.778;2.710;2023-04-24T13:58:40;22.17;;;6.75;;
54307;SDS011;40208;39.778;2.710;2023-04-24T14:01:31;21.98;;;7.35;;
54307;SDS011;40208;39.778;2.710;2023-04-24T14:04:17;26.25;;;9.68;;
54307;SDS011;40208;39.778;2.710;2023-04-24T14:07:02;22.98;;;8.10;;
54307;SDS011;40208;39.778;2.710;2023-04-24T14:09:47;22.38;;;9.43;;
54307;SDS011;40208;39.778;2.710;2023-04-24T14:12:31;17.73;;;7.53;;
54307;SDS011;40208;39.778;2.710;2023-04-24T14:15:16;25.10;;;8.18;;
54307;SDS011;40208;39.778;2.710;2023-04-24T14:18:07;12.65;;;5.53;;
54307;SDS011;40208;39.778;2.710;2023-04-24T14:20:51;11.38;;;4.63;;
54307;SDS011;40208;39.778;2.710;2023-04-24T14:23:37;10.43;;;4.07;;
54307;SDS011;40208;39.778;2.710;2023-04-24T14:26:21;10.18;;;3.47;;
54307;SDS011;40208;39.778;2.710;2023-04-24T14:29:06;7.75;;;2.97;;
54307;SDS011;40208;39.778;2.710;2023-04-24T14:31:51;11.93;;;3.88;;
54307;SDS011;40208;39.778;2.710;2023-04-24T14:34:36;16.58;;;4.45;;
54307;SDS011;40208;39.778;2.710;2023-04-24T14:37:21;18.25;;;6.40;;
54307;SDS011;40208;39.778;2.710;2023-04-24T14:40:06;15.52;;;5.70;;
54307;SDS011;40208;39.778;2.710;2023-04-24T14:42:52;13.98;;;5.68;;
54307;SDS011;40208;39.778;2.710;2023-04-24T14:45:43;13.00;;;3.97;;
54307;SDS011;40208;39.778;2.710;2023-04-24T14:48:27;17.70;;;5.03;;
54307;SDS011;40208;39.778;2.710;2023-04-24T14:51:12;11.32;;;4.05;;
54307;SDS011;40208;39.778;2.710;2023-04-24T14:54:04;9.45;;;2.70;;
54307;SDS011;40208;39.778;2.710;2023-04-24T14:56:49;7.80;;;3.70;;
54307;SDS011;40208;39.778;2.710;2023-04-24T14:59:35;12.10;;;3.03;;
54307;SDS011;40208;39.778;2.710;2023-04-24T15:02:19;9.68;;;4.43;;
54307;SDS011;40208;39.778;2.710;2023-04-24T15:05:05;9.75;;;3.65;;
54307;SDS011;40208;39.778;2.710;2023-04-24T15:07:52;13.88;;;4.10;;
54307;SDS011;40208;39.778;2.710;2023-04-24T15:10:37;10.93;;;3.33;;
54307;SDS011;40208;39.778;2.710;2023-04-24T15:13:25;12.95;;;4.78;;
54307;SDS011;40208;39.778;2.710;2023-04-24T15:16:11;22.67;;;5.18;;
54307;SDS011;40208;39.778;2.710;2023-04-24T15:18:56;7.10;;;3.05;;
54307;SDS011;40208;39.778;2.710;2023-04-24T15:21:43;7.28;;;2.88;;
54307;SDS011;40208;39.778;2.710;2023-04-24T15:24:34;9.75;;;2.60;;
54307;SDS011;40208;39.778;2.710;2023-04-24T15:27:19;12.65;;;4.75;;
54307;SDS011;40208;39.778;2.710;2023-04-24T15:30:04;13.32;;;3.67;;
54307;SDS011;40208;39.778;2.710;2023-04-24T15:32:49;6.95;;;2.72;;
54307;SDS011;40208;39.778;2.710;2023-04-24T15:35:36;10.10;;;4.03;;
54307;SDS011;40208;39.778;2.710;2023-04-24T15:38:21;9.32;;;2.70;;
54307;SDS011;40208;39.778;2.710;2023-04-24T15:41:06;6.45;;;3.08;;
54307;SDS011;40208;39.778;2.710;2023-04-24T15:43:50;9.63;;;3.03;;
54307;SDS011;40208;39.778;2.710;2023-04-24T15:46:37;15.35;;;3.10;;
54307;SDS011;40208;39.778;2.710;2023-04-24T15:49:23;10.82;;;2.97;;
54307;SDS011;40208;39.778;2.710;2023-04-24T15:52:10;9.23;;;3.33;;
54307;SDS011;40208;39.778;2.710;2023-04-24T15:54:54;9.43;;;3.05;;
54307;SDS011;40208;39.778;2.710;2023-04-24T15:57:41;9.60;;;3.05;;
54307;SDS011;40208;39.778;2.710;2023-04-24T16:00:26;8.45;;;2.70;;
54307;SDS011;40208;39.778;2.710;2023-04-24T16:03:17;8.90;;;2.67;;
54307;SDS011;40208;39.778;2.710;2023-04-24T16:06:02;7.88;;;2.90;;
54307;SDS011;40208;39.778;2.710;2023-04-24T16:08:47;9.68;;;2.65;;
54307;SDS011;40208;39.778;2.710;2023-04-24T16:11:32;6.72;;;2.40;;
54307;SDS011;40208;39.778;2.710;2023-04-24T16:14:19;7.38;;;2.80;;
54307;SDS011;40208;39.778;2.710;2023-04-24T16:17:08;7.10;;;2.13;;
54307;SDS011;40208;39.778;2.710;2023-04-24T16:19:52;15.02;;;3.33;;
54307;SDS011;40208;39.778;2.710;2023-04-24T16:22:37;11.95;;;2.65;;
54307;SDS011;40208;39.778;2.710;2023-04-24T16:25:24;6.75;;;3.13;;
54307;SDS011;40208;39.778;2.710;2023-04-24T16:28:09;9.82;;;3.08;;
54307;SDS011;40208;39.778;2.710;2023-04-24T16:30:55;6.90;;;3.17;;
54307;SDS011;40208;39.778;2.710;2023-04-24T16:33:40;8.75;;;3.40;;
54307;SDS011;40208;39.778;2.710;2023-04-24T16:36:25;8.65;;;3.22;;